Onia, Arkansas
Current Conditions -  °F | °C
As of 5:55 AM on Monday 22 Dec 2014 (Local Time) from KCCA Reporting Station
Overcast Overcast  
Wind Chill: 48°   Ceiling: 1500
Heat Index: 48°   Visibility: 8mi
Dew Point: 43°   Wind: 3mph
Humidity: 82%   Direction: 110°ESE
Pressure: 29.75"   Gusts: NA
Location:  35.92°N, 92.33°W
Report Text: KCCA 221155Z AUTO 11003KT 8SM OVC015 09/06 A2975 RMK AO2
Loading
Personal Weather Stations






























Interactive Weather Map New forecast layout! Learn more

10-Day Weather Forecast

Advertisements
Track Severe Weather on mobile